Eveleth, MN

11:21 PM CDT on March 28, 2017 (GMT -0500)
Eveleth-Virginia Municipal

Weather History for KEVM - March, 2013

Change the Weather History Date:

Wednesday, March 13, 2013

  Actual Average Record
Temperature  
Mean Temperature 16 °F -  
Max Temperature 32 °F 32 °F 59 °F (2007)
Min Temperature 0 °F 10 °F -9 °F (2009)
Degree Days  
Heating Degree Days 49    
Moisture  
Dew Point 5 °F    
Average Humidity 58    
Maximum Humidity 82    
Minimum Humidity 39    
Precipitation  
Precipitation 0.00 in - - ()
Sea Level Pressure  
Sea Level Pressure 30.21 in    
Wind  
Wind Speed 5 mph (WNW)    
Max Wind Speed 10 mph    
Max Gust Speed 17 mph    
Visibility 10 miles    
Events      
Averages and records for this station are not official NWS values.
T = Trace of Precipitation, MM = Missing Value Source: NWS Daily Summary

Daily Weather History Graph

Daily Weather History Graph

Search for Another Location

Airport or City:

Trip Planner

Search our weather history database for the weather conditions in past years. The results will help you decide how hot, cold, wet, or windy it might be!

Date:

Astronomy

Mar. 13, 2013 Rise Set
Actual Time 7:26 AM CDT 7:13 PM CDT
Civil Twilight 6:55 AM CDT 7:43 PM CDT
Nautical Twilight 6:20 AM CDT 8:19 PM CDT
Astronomical Twilight 5:43 AM CDT 8:55 PM CDT
Moon 7:55 AM CDT (3/13) 9:43 PM CDT (3/13)
Length of Visible Light 12h 47m
Length of Day
11h 46m
Waxing Crescent, 4% of the Moon is Illuminated
Mar 13
Waxing Crescent
Mar 19
First Quarter
Mar 27
Full
Apr 2
Last Quarter
Apr 10
New

Hourly Weather History & Observations

Time (CDT) Temp. Windchill Dew Point Humidity Pressure Visibility Wind Dir Wind Speed Gust Speed Precip Events Conditions
12:09 AM 13.8 °F 8.0 °F 2.7 °F 61% 30.12 in 10.0 mi WNW 3.5 mph - N/A   Clear
12:50 AM 13.6 °F 7.7 °F 2.5 °F 61% 30.11 in 10.0 mi NW 3.5 mph - N/A   Clear
1:09 AM 13.6 °F 4.6 °F 2.3 °F 61% 30.12 in 10.0 mi NW 5.8 mph - N/A   Clear
1:29 AM 14.9 °F 5.0 °F 2.3 °F 57% 30.12 in 10.0 mi NW 6.9 mph - N/A   Clear
1:50 AM 16.3 °F 4.9 °F 3.0 °F 56% 30.13 in 10.0 mi NNW 9.2 mph - N/A   Clear
2:29 AM 15.3 °F 6.6 °F 2.3 °F 57% 30.14 in 10.0 mi NW 5.8 mph - N/A   Clear
2:50 AM 14.9 °F 5.0 °F 2.8 °F 59% 30.14 in 10.0 mi NNW 6.9 mph - N/A   Clear
3:09 AM 14.5 °F 4.6 °F 2.7 °F 59% 30.15 in 10.0 mi NNW 6.9 mph - N/A   Clear
3:50 AM 12.2 °F 0.7 °F 1.2 °F 61% 30.17 in 10.0 mi NW 8.1 mph - N/A   Clear
4:09 AM 12.7 °F 2.4 °F 1.4 °F 61% 30.17 in 10.0 mi NW 6.9 mph - N/A   Clear
4:29 AM 12.2 °F 2.9 °F 1.9 °F 64% 30.18 in 10.0 mi NW 5.8 mph - N/A   Clear
5:09 AM 12.2 °F 1.7 °F 2.3 °F 65% 30.19 in 10.0 mi NW 6.9 mph - N/A   Clear
5:29 AM 12.2 °F -0.2 °F 2.3 °F 65% 30.19 in 10.0 mi NNW 9.2 mph - N/A   Clear
5:50 AM 9.5 °F -1.5 °F 0.9 °F 68% 30.20 in 10.0 mi NW 6.9 mph - N/A   Clear
6:09 AM 9.0 °F -2.2 °F 1.0 °F 70% 30.21 in 10.0 mi NW 6.9 mph - N/A   Clear
6:29 AM 6.3 °F -2.6 °F -0.4 °F 74% 30.21 in 10.0 mi NW 4.6 mph - N/A   Clear
6:49 AM 5.5 °F -3.4 °F -0.2 °F 77% 30.21 in 10.0 mi NW 4.6 mph - N/A   Clear
7:09 AM 0.5 °F -11.0 °F -4.9 °F 78% 30.22 in 10.0 mi WNW 5.8 mph - N/A   Clear
7:30 AM 4.1 °F -6.7 °F -0.6 °F 81% 30.23 in 10.0 mi WNW 5.8 mph - N/A   Clear
7:49 AM 4.5 °F -7.6 °F -0.0 °F 82% 30.23 in 10.0 mi WNW 6.9 mph - N/A   Clear
8:09 AM 4.6 °F -6.0 °F -0.6 °F 79% 30.24 in 10.0 mi WNW 5.8 mph - N/A   Clear
8:29 AM 7.7 °F -0.9 °F 2.1 °F 78% 30.25 in 10.0 mi NW 4.6 mph - N/A   Clear
8:49 AM 7.5 °F 0.8 °F 1.2 °F 75% 30.25 in 10.0 mi South 3.5 mph - N/A   Clear
9:10 AM 12.2 °F 6.1 °F 4.8 °F 72% 30.26 in 10.0 mi WSW 3.5 mph - N/A   Clear
9:29 AM 12.4 °F 3.1 °F 3.2 °F 67% 30.26 in 10.0 mi West 5.8 mph - N/A   Clear
9:49 AM 14.9 °F 6.1 °F 4.6 °F 64% 30.26 in 10.0 mi West 5.8 mph - N/A   Clear
10:10 AM 17.4 °F 9.1 °F 5.5 °F 60% 30.27 in 10.0 mi West 5.8 mph - N/A   Clear
10:29 AM 17.4 °F 9.1 °F 3.7 °F 55% 30.27 in 10.0 mi West 5.8 mph - N/A   Clear
10:49 AM 19.9 °F 11.1 °F 5.0 °F 52% 30.27 in 10.0 mi West 6.9 mph - N/A   Clear
11:10 AM 20.1 °F 11.3 °F 3.4 °F 48% 30.27 in 10.0 mi WNW 6.9 mph - N/A   Clear
11:29 AM 22.5 °F 16.3 °F 3.0 °F 43% 30.27 in 10.0 mi WNW 4.6 mph - N/A   Clear
11:49 AM 22.5 °F 14.1 °F 3.0 °F 43% 30.27 in 10.0 mi NW 6.9 mph - N/A   Clear
12:10 PM 23.7 °F 14.7 °F 2.7 °F 40% 30.27 in 10.0 mi NW 8.1 mph - N/A   Clear
12:29 PM 23.9 °F 15.0 °F 3.6 °F 42% 30.27 in 10.0 mi WNW 8.1 mph - N/A   Clear
12:49 PM 25.0 °F 17.1 °F 3.9 °F 41% 30.27 in 10.0 mi NW 6.9 mph - N/A   Clear
1:10 PM 25.7 °F 20.1 °F 4.5 °F 40% 30.27 in 10.0 mi NNW 4.6 mph - N/A   Clear
1:29 PM 26.2 °F 17.1 °F 5.0 °F 40% 30.26 in 10.0 mi WNW 9.2 mph 17.3 mph N/A   Clear
1:49 PM 27.5 °F 18.6 °F 6.1 °F 40% 30.26 in 10.0 mi NNW 9.2 mph - N/A   Clear
2:10 PM 27.5 °F 18.0 °F 6.4 °F 41% 30.25 in 10.0 mi NW 10.4 mph - N/A   Clear
2:29 PM 28.4 °F 23.3 °F 6.8 °F 40% 30.24 in 10.0 mi WNW 4.6 mph - N/A   Clear
2:49 PM 30.0 °F 26.5 °F 8.1 °F 40% 30.23 in 10.0 mi North 3.5 mph - N/A   Clear
3:10 PM 30.0 °F 24.1 °F 8.2 °F 40% 30.23 in 10.0 mi WNW 5.8 mph - N/A   Clear
3:29 PM 30.0 °F 23.2 °F 8.2 °F 40% 30.23 in 10.0 mi WNW 6.9 mph - N/A   Clear
3:49 PM 32.2 °F 25.8 °F 9.7 °F 39% 30.22 in 10.0 mi NW 6.9 mph - N/A   Clear
4:10 PM 32.2 °F 26.7 °F 10.0 °F 40% 30.22 in 10.0 mi NNW 5.8 mph - N/A   Clear
4:29 PM 32.2 °F - 10.0 °F 40% 30.22 in 10.0 mi Calm Calm - N/A   Clear
4:49 PM 32.2 °F 27.7 °F 10.8 °F 41% 30.22 in 10.0 mi West 4.6 mph - N/A   Clear
5:10 PM 32.2 °F - 11.7 °F 43% 30.21 in 10.0 mi Calm Calm - N/A   Clear
5:29 PM 32.2 °F - 10.2 °F 40% 30.21 in 10.0 mi Calm Calm - N/A   Clear
5:49 PM 30.0 °F 24.1 °F 9.1 °F 42% 30.21 in 10.0 mi WNW 5.8 mph - N/A   Clear
6:10 PM 30.0 °F 24.1 °F 9.1 °F 42% 30.21 in 10.0 mi WSW 5.8 mph - N/A   Clear
6:29 PM 30.0 °F 23.2 °F 10.2 °F 44% 30.21 in 10.0 mi WSW 6.9 mph - N/A   Clear
6:49 PM 27.5 °F 21.1 °F 8.6 °F 45% 30.21 in 10.0 mi WSW 5.8 mph - N/A   Clear
7:10 PM 27.5 °F 23.6 °F 9.5 °F 47% 30.21 in 10.0 mi WSW 3.5 mph - N/A   Clear
7:29 PM 26.2 °F 22.1 °F 9.1 °F 49% 30.21 in 10.0 mi WSW 3.5 mph - N/A   Clear
7:50 PM 23.7 °F 19.3 °F 9.0 °F 53% 30.21 in 10.0 mi WSW 3.5 mph - N/A   Clear
8:09 PM 20.1 °F 15.2 °F 7.5 °F 58% 30.21 in 10.0 mi West 3.5 mph - N/A   Clear
8:29 PM 22.5 °F - 10.6 °F 60% 30.20 in 10.0 mi Calm Calm - N/A   Clear
8:50 PM 18.1 °F - 9.5 °F 69% 30.20 in 10.0 mi Calm Calm - N/A   Clear
9:09 PM 18.0 °F - 9.1 °F 68% 30.20 in 10.0 mi Calm Calm - N/A   Clear
9:29 PM 17.4 °F - 9.3 °F 71% 30.20 in 10.0 mi Calm Calm - N/A   Clear
9:50 PM 17.4 °F - 10.2 °F 73% 30.19 in 10.0 mi Calm Calm - N/A   Clear
10:09 PM 14.9 °F - 8.4 °F 76% 30.19 in 10.0 mi Calm Calm - N/A   Clear
10:29 PM 17.4 °F - 10.4 °F 74% 30.19 in 10.0 mi Calm Calm - N/A   Scattered Clouds
10:49 PM 14.9 °F - 9.3 °F 79% 30.18 in 10.0 mi Calm Calm - N/A   Clear
11:09 PM 12.2 °F - 7.3 °F 81% 30.18 in 10.0 mi Calm Calm - N/A   Clear
11:29 PM 12.2 °F - 6.4 °F 78% 30.18 in 10.0 mi Calm Calm - N/A   Scattered Clouds
11:49 PM 12.2 °F - 7.2 °F 80% 30.18 in 10.0 mi Calm Calm - N/A   Scattered Clouds